sensor_id;sensor_type;location;lat;lon;timestamp;pressure;altitude;pressure_sealevel;temperature;humidity
15272;BME280;7737;51.578;7.268;2023-02-24T00:02:25;101004.81;;;5.90;100.00
15272;BME280;7737;51.578;7.268;2023-02-24T00:04:53;101001.03;;;6.00;100.00
15272;BME280;7737;51.578;7.268;2023-02-24T00:07:20;100991.50;;;5.95;100.00
15272;BME280;7737;51.578;7.268;2023-02-24T00:09:46;100990.69;;;5.91;100.00
15272;BME280;7737;51.578;7.268;2023-02-24T00:12:14;100991.69;;;5.87;100.00
15272;BME280;7737;51.578;7.268;2023-02-24T00:14:43;100988.22;;;5.84;100.00
15272;BME280;7737;51.578;7.268;2023-02-24T00:17:11;100980.19;;;5.90;100.00
15272;BME280;7737;51.578;7.268;2023-02-24T00:19:39;100973.25;;;5.86;100.00
15272;BME280;7737;51.578;7.268;2023-02-24T00:22:07;100963.91;;;5.73;100.00
15272;BME280;7737;51.578;7.268;2023-02-24T00:24:34;100963.22;;;5.66;100.00
15272;BME280;7737;51.578;7.268;2023-02-24T00:27:02;100964.31;;;5.58;100.00
15272;BME280;7737;51.578;7.268;2023-02-24T00:29:32;100967.75;;;5.60;100.00
15272;BME280;7737;51.578;7.268;2023-02-24T00:31:59;100957.22;;;5.60;100.00
15272;BME280;7737;51.578;7.268;2023-02-24T00:34:28;100959.38;;;5.44;100.00
15272;BME280;7737;51.578;7.268;2023-02-24T00:36:57;100962.06;;;5.41;100.00
15272;BME280;7737;51.578;7.268;2023-02-24T00:39:24;100956.84;;;5.39;100.00
15272;BME280;7737;51.578;7.268;2023-02-24T00:41:55;100959.50;;;5.38;100.00
15272;BME280;7737;51.578;7.268;2023-02-24T00:44:29;100956.16;;;5.31;100.00
15272;BME280;7737;51.578;7.268;2023-02-24T00:46:57;100968.41;;;5.34;100.00
15272;BME280;7737;51.578;7.268;2023-02-24T00:49:23;100959.75;;;5.29;100.00
15272;BME280;7737;51.578;7.268;2023-02-24T00:51:50;100961.31;;;5.37;100.00
15272;BME280;7737;51.578;7.268;2023-02-24T00:54:20;100955.84;;;5.43;100.00
15272;BME280;7737;51.578;7.268;2023-02-24T00:56:49;100946.03;;;5.50;100.00
15272;BME280;7737;51.578;7.268;2023-02-24T00:59:17;100946.66;;;5.60;100.00
15272;BME280;7737;51.578;7.268;2023-02-24T01:01:44;100947.47;;;5.62;100.00
15272;BME280;7737;51.578;7.268;2023-02-24T01:04:11;100949.28;;;5.60;100.00
15272;BME280;7737;51.578;7.268;2023-02-24T01:06:40;100944.84;;;5.62;100.00
15272;BME280;7737;51.578;7.268;2023-02-24T01:09:09;100944.16;;;5.55;100.00
15272;BME280;7737;51.578;7.268;2023-02-24T01:11:38;100951.34;;;5.48;100.00
15272;BME280;7737;51.578;7.268;2023-02-24T01:14:27;100942.19;;;5.62;100.00
15272;BME280;7737;51.578;7.268;2023-02-24T01:16:54;100946.97;;;5.47;100.00
15272;BME280;7737;51.578;7.268;2023-02-24T01:19:23;100930.31;;;5.45;100.00
15272;BME280;7737;51.578;7.268;2023-02-24T01:21:55;100933.13;;;5.39;100.00
15272;BME280;7737;51.578;7.268;2023-02-24T01:24:23;100939.34;;;5.37;100.00
15272;BME280;7737;51.578;7.268;2023-02-24T01:26:51;100927.81;;;5.41;100.00
15272;BME280;7737;51.578;7.268;2023-02-24T01:29:18;100929.75;;;5.34;100.00
15272;BME280;7737;51.578;7.268;2023-02-24T01:31:46;100927.84;;;5.39;100.00
15272;BME280;7737;51.578;7.268;2023-02-24T01:34:14;100921.56;;;5.45;100.00
15272;BME280;7737;51.578;7.268;2023-02-24T01:36:42;100923.72;;;5.29;100.00
15272;BME280;7737;51.578;7.268;2023-02-24T01:39:08;100914.75;;;5.36;100.00
15272;BME280;7737;51.578;7.268;2023-02-24T01:41:36;100919.22;;;5.33;100.00
15272;BME280;7737;51.578;7.268;2023-02-24T01:44:56;100916.50;;;5.37;100.00
15272;BME280;7737;51.578;7.268;2023-02-24T01:46:55;100924.56;;;5.30;100.00
15272;BME280;7737;51.578;7.268;2023-02-24T01:49:23;100915.81;;;5.29;100.00
15272;BME280;7737;51.578;7.268;2023-02-24T01:51:56;100908.25;;;5.16;100.00
15272;BME280;7737;51.578;7.268;2023-02-24T01:54:28;100903.53;;;5.28;100.00
15272;BME280;7737;51.578;7.268;2023-02-24T01:56:57;100905.16;;;5.32;100.00
15272;BME280;7737;51.578;7.268;2023-02-24T01:59:27;100906.28;;;5.24;100.00
15272;BME280;7737;51.578;7.268;2023-02-24T02:01:57;100893.81;;;5.30;100.00
15272;BME280;7737;51.578;7.268;2023-02-24T02:04:35;100887.84;;;5.22;100.00
15272;BME280;7737;51.578;7.268;2023-02-24T02:07:05;100879.97;;;5.22;100.00
15272;BME280;7737;51.578;7.268;2023-02-24T02:09:34;100877.31;;;5.22;100.00
15272;BME280;7737;51.578;7.268;2023-02-24T02:12:01;100870.56;;;5.12;100.00
15272;BME280;7737;51.578;7.268;2023-02-24T02:14:28;100865.97;;;5.20;100.00
15272;BME280;7737;51.578;7.268;2023-02-24T02:17:04;100866.09;;;5.14;100.00
15272;BME280;7737;51.578;7.268;2023-02-24T02:19:51;100864.41;;;5.12;100.00
15272;BME280;7737;51.578;7.268;2023-02-24T02:25:30;100847.13;;;5.02;100.00
15272;BME280;7737;51.578;7.268;2023-02-24T02:28:18;100842.78;;;4.99;100.00
15272;BME280;7737;51.578;7.268;2023-02-24T02:31:16;100839.41;;;4.92;100.00
15272;BME280;7737;51.578;7.268;2023-02-24T02:34:06;100831.63;;;4.89;100.00
15272;BME280;7737;51.578;7.268;2023-02-24T02:36:38;100837.16;;;4.77;100.00
15272;BME280;7737;51.578;7.268;2023-02-24T02:39:11;100827.56;;;4.75;100.00
15272;BME280;7737;51.578;7.268;2023-02-24T02:41:46;100821.69;;;4.64;100.00
15272;BME280;7737;51.578;7.268;2023-02-24T02:44:19;100825.31;;;4.60;100.00
15272;BME280;7737;51.578;7.268;2023-02-24T02:46:52;100826.22;;;4.59;100.00
15272;BME280;7737;51.578;7.268;2023-02-24T02:49:25;100817.63;;;4.51;100.00
15272;BME280;7737;51.578;7.268;2023-02-24T02:52:01;100816.56;;;4.59;100.00
15272;BME280;7737;51.578;7.268;2023-02-24T02:54:34;100814.03;;;4.55;100.00
15272;BME280;7737;51.578;7.268;2023-02-24T02:57:08;100806.88;;;4.60;100.00
15272;BME280;7737;51.578;7.268;2023-02-24T02:59:42;100802.56;;;4.57;100.00
15272;BME280;7737;51.578;7.268;2023-02-24T03:02:14;100807.03;;;4.54;100.00
15272;BME280;7737;51.578;7.268;2023-02-24T03:04:47;100800.88;;;4.53;100.00
15272;BME280;7737;51.578;7.268;2023-02-24T03:07:17;100801.63;;;4.60;100.00
15272;BME280;7737;51.578;7.268;2023-02-24T03:09:48;100798.19;;;4.58;100.00
15272;BME280;7737;51.578;7.268;2023-02-24T03:12:19;100790.28;;;4.56;100.00
15272;BME280;7737;51.578;7.268;2023-02-24T03:14:49;100793.97;;;4.49;100.00
15272;BME280;7737;51.578;7.268;2023-02-24T03:17:21;100778.41;;;4.40;100.00
15272;BME280;7737;51.578;7.268;2023-02-24T03:19:56;100783.81;;;4.34;100.00
15272;BME280;7737;51.578;7.268;2023-02-24T03:22:30;100780.94;;;4.45;100.00
15272;BME280;7737;51.578;7.268;2023-02-24T03:25:00;100779.34;;;4.38;100.00
15272;BME280;7737;51.578;7.268;2023-02-24T03:27:32;100775.69;;;4.45;100.00
15272;BME280;7737;51.578;7.268;2023-02-24T03:30:03;100771.16;;;4.50;100.00
15272;BME280;7737;51.578;7.268;2023-02-24T03:32:36;100766.66;;;4.55;100.00
15272;BME280;7737;51.578;7.268;2023-02-24T03:35:12;100775.56;;;4.49;100.00
15272;BME280;7737;51.578;7.268;2023-02-24T03:37:42;100765.91;;;4.48;100.00
15272;BME280;7737;51.578;7.268;2023-02-24T03:40:11;100758.78;;;4.53;100.00
15272;BME280;7737;51.578;7.268;2023-02-24T03:42:42;100753.69;;;4.46;100.00
15272;BME280;7737;51.578;7.268;2023-02-24T03:45:10;100749.50;;;4.39;100.00
15272;BME280;7737;51.578;7.268;2023-02-24T03:47:37;100750.38;;;4.38;100.00
15272;BME280;7737;51.578;7.268;2023-02-24T03:50:12;100758.28;;;4.38;100.00
15272;BME280;7737;51.578;7.268;2023-02-24T03:52:42;100751.44;;;4.30;100.00
15272;BME280;7737;51.578;7.268;2023-02-24T03:55:19;100754.22;;;4.24;100.00
15272;BME280;7737;51.578;7.268;2023-02-24T03:57:59;100748.94;;;4.26;100.00
15272;BME280;7737;51.578;7.268;2023-02-24T04:00:34;100746.44;;;4.18;100.00
15272;BME280;7737;51.578;7.268;2023-02-24T04:03:11;100750.00;;;4.17;100.00
15272;BME280;7737;51.578;7.268;2023-02-24T04:05:43;100757.13;;;4.12;100.00
15272;BME280;7737;51.578;7.268;2023-02-24T04:08:13;100750.06;;;4.14;100.00
15272;BME280;7737;51.578;7.268;2023-02-24T04:10:46;100747.31;;;4.19;100.00
15272;BME280;7737;51.578;7.268;2023-02-24T04:13:21;100755.25;;;4.17;100.00
15272;BME280;7737;51.578;7.268;2023-02-24T04:15:58;100750.00;;;4.17;100.00
15272;BME280;7737;51.578;7.268;2023-02-24T04:18:28;100745.44;;;4.25;100.00
15272;BME280;7737;51.578;7.268;2023-02-24T04:20:59;100749.88;;;4.23;100.00
15272;BME280;7737;51.578;7.268;2023-02-24T04:23:30;100745.44;;;4.25;100.00
15272;BME280;7737;51.578;7.268;2023-02-24T04:25:59;100750.63;;;4.27;100.00
15272;BME280;7737;51.578;7.268;2023-02-24T04:28:26;100730.25;;;4.37;100.00
15272;BME280;7737;51.578;7.268;2023-02-24T04:30:56;100725.81;;;4.39;100.00
15272;BME280;7737;51.578;7.268;2023-02-24T04:33:24;100722.44;;;4.34;100.00
15272;BME280;7737;51.578;7.268;2023-02-24T04:35:52;100715.34;;;4.36;100.00
15272;BME280;7737;51.578;7.268;2023-02-24T04:38:20;100725.00;;;4.35;100.00
15272;BME280;7737;51.578;7.268;2023-02-24T04:40:47;100716.84;;;4.46;100.00
15272;BME280;7737;51.578;7.268;2023-02-24T04:43:14;100705.66;;;4.38;100.00
15272;BME280;7737;51.578;7.268;2023-02-24T04:45:41;100709.28;;;4.34;100.00
15272;BME280;7737;51.578;7.268;2023-02-24T04:48:08;100714.28;;;4.44;100.00
15272;BME280;7737;51.578;7.268;2023-02-24T04:50:39;100707.88;;;4.54;100.00
15272;BME280;7737;51.578;7.268;2023-02-24T04:53:09;100700.19;;;4.47;100.00
15272;BME280;7737;51.578;7.268;2023-02-24T04:55:38;100709.09;;;4.40;100.00
15272;BME280;7737;51.578;7.268;2023-02-24T04:58:06;100706.22;;;4.50;100.00
15272;BME280;7737;51.578;7.268;2023-02-24T05:00:34;100701.88;;;4.48;100.00
15272;BME280;7737;51.578;7.268;2023-02-24T05:03:04;100703.75;;;4.44;100.00
15272;BME280;7737;51.578;7.268;2023-02-24T05:05:32;100708.97;;;4.46;100.00
15272;BME280;7737;51.578;7.268;2023-02-24T05:08:00;100702.75;;;4.50;100.00
15272;BME280;7737;51.578;7.268;2023-02-24T05:10:28;100694.03;;;4.46;100.00
15272;BME280;7737;51.578;7.268;2023-02-24T05:12:56;100685.16;;;4.50;100.00
15272;BME280;7737;51.578;7.268;2023-02-24T05:15:23;100688.78;;;4.46;100.00
15272;BME280;7737;51.578;7.268;2023-02-24T05:17:56;100687.91;;;4.46;100.00
15272;BME280;7737;51.578;7.268;2023-02-24T05:20:23;100688.63;;;4.52;100.00
15272;BME280;7737;51.578;7.268;2023-02-24T05:23:07;100680.75;;;4.52;100.00
15272;BME280;7737;51.578;7.268;2023-02-24T05:25:35;100669.28;;;4.53;100.00
15272;BME280;7737;51.578;7.268;2023-02-24T05:28:04;100672.84;;;4.51;100.00
15272;BME280;7737;51.578;7.268;2023-02-24T05:30:31;100670.22;;;4.51;100.00
15272;BME280;7737;51.578;7.268;2023-02-24T05:32:57;100656.13;;;4.53;100.00
15272;BME280;7737;51.578;7.268;2023-02-24T05:35:25;100656.31;;;4.46;100.00
15272;BME280;7737;51.578;7.268;2023-02-24T05:37:52;100651.81;;;4.51;100.00
15272;BME280;7737;51.578;7.268;2023-02-24T05:40:23;100644.84;;;4.50;100.00
15272;BME280;7737;51.578;7.268;2023-02-24T05:42:49;100647.63;;;4.44;100.00
15272;BME280;7737;51.578;7.268;2023-02-24T05:45:18;100643.16;;;4.47;100.00
15272;BME280;7737;51.578;7.268;2023-02-24T05:47:45;100637.00;;;4.47;100.00
15272;BME280;7737;51.578;7.268;2023-02-24T05:50:12;100632.56;;;4.49;100.00
15272;BME280;7737;51.578;7.268;2023-02-24T05:52:38;100626.56;;;4.44;100.00
15272;BME280;7737;51.578;7.268;2023-02-24T05:55:06;100624.66;;;4.49;100.00
15272;BME280;7737;51.578;7.268;2023-02-24T05:57:38;100616.72;;;4.50;100.00
15272;BME280;7737;51.578;7.268;2023-02-24T06:00:06;100615.00;;;4.49;100.00
15272;BME280;7737;51.578;7.268;2023-02-24T06:02:42;100614.88;;;4.54;100.00
15272;BME280;7737;51.578;7.268;2023-02-24T06:05:15;100613.44;;;4.42;100.00
15272;BME280;7737;51.578;7.268;2023-02-24T06:07:50;100611.66;;;4.44;100.00
15272;BME280;7737;51.578;7.268;2023-02-24T06:10:27;100608.81;;;4.52;100.00
15272;BME280;7737;51.578;7.268;2023-02-24T06:12:55;100608.81;;;4.52;100.00
15272;BME280;7737;51.578;7.268;2023-02-24T06:15:22;100597.41;;;4.51;100.00
15272;BME280;7737;51.578;7.268;2023-02-24T06:17:50;100595.59;;;4.53;100.00
15272;BME280;7737;51.578;7.268;2023-02-24T06:20:17;100596.38;;;4.57;100.00
15272;BME280;7737;51.578;7.268;2023-02-24T06:22:46;100591.34;;;4.48;100.00
15272;BME280;7737;51.578;7.268;2023-02-24T06:25:19;100588.63;;;4.52;100.00
15272;BME280;7737;51.578;7.268;2023-02-24T06:27:49;100586.97;;;4.48;100.00
15272;BME280;7737;51.578;7.268;2023-02-24T06:30:19;100579.28;;;4.41;100.00
15272;BME280;7737;51.578;7.268;2023-02-24T06:32:47;100575.66;;;4.45;100.00
15272;BME280;7737;51.578;7.268;2023-02-24T06:35:17;100577.81;;;4.29;100.00
15272;BME280;7737;51.578;7.268;2023-02-24T06:37:46;100568.09;;;4.32;100.00
15272;BME280;7737;51.578;7.268;2023-02-24T06:40:13;100570.78;;;4.29;100.00
15272;BME280;7737;51.578;7.268;2023-02-24T06:42:44;100563.81;;;4.28;100.00
15272;BME280;7737;51.578;7.268;2023-02-24T06:45:11;100556.91;;;4.24;100.00
15272;BME280;7737;51.578;7.268;2023-02-24T06:47:38;100566.41;;;4.30;100.00
15272;BME280;7737;51.578;7.268;2023-02-24T06:50:05;100556.75;;;4.29;100.00
15272;BME280;7737;51.578;7.268;2023-02-24T06:52:33;100552.22;;;4.36;100.00
15272;BME280;7737;51.578;7.268;2023-02-24T06:55:00;100558.56;;;4.28;100.00
15272;BME280;7737;51.578;7.268;2023-02-24T06:57:28;100558.56;;;4.28;100.00
15272;BME280;7737;51.578;7.268;2023-02-24T06:59:57;100555.06;;;4.28;100.00
15272;BME280;7737;51.578;7.268;2023-02-24T07:02:23;100561.19;;;4.28;100.00
15272;BME280;7737;51.578;7.268;2023-02-24T07:04:54;100556.75;;;4.29;100.00
15272;BME280;7737;51.578;7.268;2023-02-24T07:07:22;100550.63;;;4.30;100.00
15272;BME280;7737;51.578;7.268;2023-02-24T07:09:50;100551.56;;;4.27;100.00
15272;BME280;7737;51.578;7.268;2023-02-24T07:12:17;100544.75;;;4.20;100.00
15272;BME280;7737;51.578;7.268;2023-02-24T07:14:45;100544.47;;;4.31;100.00
15272;BME280;7737;51.578;7.268;2023-02-24T07:17:15;100550.53;;;4.33;100.00
15272;BME280;7737;51.578;7.268;2023-02-24T07:19:43;100546.22;;;4.30;100.00
15272;BME280;7737;51.578;7.268;2023-02-24T07:22:10;100539.84;;;4.39;100.00
15272;BME280;7737;51.578;7.268;2023-02-24T07:24:38;100530.28;;;4.37;100.00
15272;BME280;7737;51.578;7.268;2023-02-24T07:27:13;100523.19;;;4.39;100.00
15272;BME280;7737;51.578;7.268;2023-02-24T07:29:46;100518.81;;;4.38;100.00
15272;BME280;7737;51.578;7.268;2023-02-24T07:32:14;100517.88;;;4.40;100.00
15272;BME280;7737;51.578;7.268;2023-02-24T07:34:42;100513.34;;;4.45;100.00
15272;BME280;7737;51.578;7.268;2023-02-24T07:37:09;100508.88;;;4.49;100.00
15272;BME280;7737;51.578;7.268;2023-02-24T07:39:37;100508.13;;;4.44;100.00
15272;BME280;7737;51.578;7.268;2023-02-24T07:42:05;100500.91;;;4.50;100.00
15272;BME280;7737;51.578;7.268;2023-02-24T07:44:33;100495.63;;;4.52;100.00
15272;BME280;7737;51.578;7.268;2023-02-24T07:47:00;100489.44;;;4.53;100.00
15272;BME280;7737;51.578;7.268;2023-02-24T07:49:32;100487.66;;;4.55;100.00
15272;BME280;7737;51.578;7.268;2023-02-24T07:51:59;100487.75;;;4.50;100.00
15272;BME280;7737;51.578;7.268;2023-02-24T07:54:26;100480.47;;;4.60;100.00
15272;BME280;7737;51.578;7.268;2023-02-24T07:56:55;100476.09;;;4.59;100.00
15272;BME280;7737;51.578;7.268;2023-02-24T07:59:24;100464.59;;;4.63;100.00
15272;BME280;7737;51.578;7.268;2023-02-24T08:01:53;100459.25;;;4.66;100.00
15272;BME280;7737;51.578;7.268;2023-02-24T08:04:26;100451.34;;;4.66;100.00
15272;BME280;7737;51.578;7.268;2023-02-24T08:06:55;100447.78;;;4.67;100.00
15272;BME280;7737;51.578;7.268;2023-02-24T08:09:24;100453.16;;;4.64;100.00
15272;BME280;7737;51.578;7.268;2023-02-24T08:12:08;100438.06;;;4.69;100.00
15272;BME280;7737;51.578;7.268;2023-02-24T08:14:36;100431.00;;;4.71;100.00
15272;BME280;7737;51.578;7.268;2023-02-24T08:17:10;100427.28;;;4.78;100.00
15272;BME280;7737;51.578;7.268;2023-02-24T08:19:45;100430.72;;;4.80;100.00
15272;BME280;7737;51.578;7.268;2023-02-24T08:22:12;100420.47;;;4.71;100.00
15272;BME280;7737;51.578;7.268;2023-02-24T08:24:45;100427.47;;;4.72;100.00
15272;BME280;7737;51.578;7.268;2023-02-24T08:27:15;100421.19;;;4.76;100.00
15272;BME280;7737;51.578;7.268;2023-02-24T08:29:46;100420.03;;;4.84;100.00
15272;BME280;7737;51.578;7.268;2023-02-24T08:32:25;100419.31;;;4.79;100.00
15272;BME280;7737;51.578;7.268;2023-02-24T08:34:51;100414.81;;;4.83;100.00
15272;BME280;7737;51.578;7.268;2023-02-24T08:37:21;100412.13;;;4.84;100.00
15272;BME280;7737;51.578;7.268;2023-02-24T08:39:48;100397.19;;;4.85;100.00
15272;BME280;7737;51.578;7.268;2023-02-24T08:42:18;100405.88;;;4.88;100.00
15272;BME280;7737;51.578;7.268;2023-02-24T08:44:45;100393.38;;;4.95;100.00
15272;BME280;7737;51.578;7.268;2023-02-24T08:47:14;100407.63;;;4.89;100.00
15272;BME280;7737;51.578;7.268;2023-02-24T08:49:46;100391.94;;;4.85;100.00
15272;BME280;7737;51.578;7.268;2023-02-24T08:52:13;100382.72;;;4.98;100.00
15272;BME280;7737;51.578;7.268;2023-02-24T08:54:43;100373.84;;;5.02;100.00
15272;BME280;7737;51.578;7.268;2023-02-24T08:57:13;100359.97;;;4.97;100.00
15272;BME280;7737;51.578;7.268;2023-02-24T08:59:42;100364.38;;;4.95;100.00
15272;BME280;7737;51.578;7.268;2023-02-24T09:02:16;100362.53;;;4.99;100.00
15272;BME280;7737;51.578;7.268;2023-02-24T09:04:54;100356.31;;;5.01;100.00
15272;BME280;7737;51.578;7.268;2023-02-24T09:07:24;100361.56;;;5.01;100.00
15272;BME280;7737;51.578;7.268;2023-02-24T09:09:51;100354.47;;;5.03;100.00
15272;BME280;7737;51.578;7.268;2023-02-24T09:12:22;100353.50;;;5.06;100.00
15272;BME280;7737;51.578;7.268;2023-02-24T09:14:50;100359.38;;;5.14;100.00
15272;BME280;7737;51.578;7.268;2023-02-24T09:17:20;100357.69;;;5.13;100.00
15272;BME280;7737;51.578;7.268;2023-02-24T09:20:07;100353.13;;;5.18;100.00
15272;BME280;7737;51.578;7.268;2023-02-24T09:22:48;100355.69;;;5.19;100.00
15272;BME280;7737;51.578;7.268;2023-02-24T09:25:26;100351.34;;;5.18;100.00
15272;BME280;7737;51.578;7.268;2023-02-24T09:28:06;100344.19;;;5.22;100.00
15272;BME280;7737;51.578;7.268;2023-02-24T09:30:35;100327.53;;;5.21;100.00
15272;BME280;7737;51.578;7.268;2023-02-24T09:33:11;100327.63;;;5.18;100.00
15272;BME280;7737;51.578;7.268;2023-02-24T09:35:59;100326.59;;;5.22;100.00
15272;BME280;7737;51.578;7.268;2023-02-24T09:38:36;100329.16;;;5.25;100.00
15272;BME280;7737;51.578;7.268;2023-02-24T09:41:28;100306.22;;;5.27;100.00
15272;BME280;7737;51.578;7.268;2023-02-24T09:43:58;100313.03;;;5.34;100.00
15272;BME280;7737;51.578;7.268;2023-02-24T09:46:30;100316.78;;;5.27;100.00
15272;BME280;7737;51.578;7.268;2023-02-24T09:49:03;100307.88;;;5.31;100.00
15272;BME280;7737;51.578;7.268;2023-02-24T09:51:33;100297.44;;;5.28;100.00
15272;BME280;7737;51.578;7.268;2023-02-24T09:54:11;100296.44;;;5.31;100.00
15272;BME280;7737;51.578;7.268;2023-02-24T09:56:41;100287.19;;;5.19;100.00
15272;BME280;7737;51.578;7.268;2023-02-24T09:59:20;100292.47;;;5.19;100.00
15272;BME280;7737;51.578;7.268;2023-02-24T10:01:55;100283.84;;;5.14;100.00
15272;BME280;7737;51.578;7.268;2023-02-24T10:04:37;100294.50;;;5.11;100.00
15272;BME280;7737;51.578;7.268;2023-02-24T10:07:10;100296.31;;;5.09;100.00
15272;BME280;7737;51.578;7.268;2023-02-24T10:09:41;100291.59;;;4.94;100.00
15272;BME280;7737;51.578;7.268;2023-02-24T10:12:15;100285.44;;;4.93;100.00
15272;BME280;7737;51.578;7.268;2023-02-24T10:14:47;100284.59;;;4.93;100.00
15272;BME280;7737;51.578;7.268;2023-02-24T10:17:18;100274.75;;;4.98;100.00
15272;BME280;7737;51.578;7.268;2023-02-24T10:19:49;100281.25;;;4.88;100.00
15272;BME280;7737;51.578;7.268;2023-02-24T10:22:28;100288.25;;;4.89;100.00
15272;BME280;7737;51.578;7.268;2023-02-24T10:25:03;100273.31;;;4.89;100.00
15272;BME280;7737;51.578;7.268;2023-02-24T10:27:46;100273.19;;;4.92;100.00
15272;BME280;7737;51.578;7.268;2023-02-24T10:30:27;100277.56;;;4.93;100.00
15272;BME280;7737;51.578;7.268;2023-02-24T10:33:13;100268.03;;;4.89;100.00
15272;BME280;7737;51.578;7.268;2023-02-24T10:35:42;100263.16;;;5.04;100.00
15272;BME280;7737;51.578;7.268;2023-02-24T10:38:10;100264.19;;;5.00;100.00
15272;BME280;7737;51.578;7.268;2023-02-24T10:40:44;100253.56;;;5.01;100.00
15272;BME280;7737;51.578;7.268;2023-02-24T10:43:15;100260.25;;;4.86;100.00
15272;BME280;7737;51.578;7.268;2023-02-24T10:45:43;100259.97;;;4.94;100.00
15272;BME280;7737;51.578;7.268;2023-02-24T10:48:16;100246.91;;;4.91;100.00
15272;BME280;7737;51.578;7.268;2023-02-24T10:50:50;100249.44;;;4.94;100.00
15272;BME280;7737;51.578;7.268;2023-02-24T10:53:24;100237.06;;;4.96;100.00
15272;BME280;7737;51.578;7.268;2023-02-24T10:56:00;100250.44;;;4.90;100.00
15272;BME280;7737;51.578;7.268;2023-02-24T10:58:59;100237.34;;;4.88;100.00
15272;BME280;7737;51.578;7.268;2023-02-24T11:01:49;100238.50;;;4.80;100.00
15272;BME280;7737;51.578;7.268;2023-02-24T11:04:31;100236.13;;;4.72;100.00
15272;BME280;7737;51.578;7.268;2023-02-24T11:07:11;100229.81;;;4.78;100.00
15272;BME280;7737;51.578;7.268;2023-02-24T11:10:01;100227.81;;;4.84;100.00
15272;BME280;7737;51.578;7.268;2023-02-24T11:12:36;100215.00;;;4.74;100.00
15272;BME280;7737;51.578;7.268;2023-02-24T11:15:23;100208.81;;;4.76;100.00
15272;BME280;7737;51.578;7.268;2023-02-24T11:18:15;100207.72;;;4.57;100.00
15272;BME280;7737;51.578;7.268;2023-02-24T11:20:46;100203.59;;;4.75;100.00
15272;BME280;7737;51.578;7.268;2023-02-24T11:23:15;100205.81;;;4.87;100.00
15272;BME280;7737;51.578;7.268;2023-02-24T11:25:46;100198.84;;;4.84;100.00
15272;BME280;7737;51.578;7.268;2023-02-24T11:28:28;100199.03;;;4.80;100.00
15272;BME280;7737;51.578;7.268;2023-02-24T11:31:06;100186.88;;;4.76;100.00
15272;BME280;7737;51.578;7.268;2023-02-24T11:33:37;100187.19;;;4.67;100.00
15272;BME280;7737;51.578;7.268;2023-02-24T11:36:15;100190.75;;;4.66;100.00
15272;BME280;7737;51.578;7.268;2023-02-24T11:38:53;100173.06;;;4.69;100.00
15272;BME280;7737;51.578;7.268;2023-02-24T11:41:29;100171.72;;;4.58;100.00
15272;BME280;7737;51.578;7.268;2023-02-24T11:44:01;100169.56;;;4.69;100.00
15272;BME280;7737;51.578;7.268;2023-02-24T11:46:35;100167.25;;;4.60;100.00
15272;BME280;7737;51.578;7.268;2023-02-24T11:49:08;100164.16;;;4.73;100.00
15272;BME280;7737;51.578;7.268;2023-02-24T11:51:42;100164.44;;;4.66;100.00
15272;BME280;7737;51.578;7.268;2023-02-24T11:54:12;100158.69;;;4.53;100.00
15272;BME280;7737;51.578;7.268;2023-02-24T11:56:45;100152.06;;;4.68;100.00
15272;BME280;7737;51.578;7.268;2023-02-24T11:59:17;100153.25;;;4.59;100.00
15272;BME280;7737;51.578;7.268;2023-02-24T12:01:51;100150.03;;;4.76;100.00
15272;BME280;7737;51.578;7.268;2023-02-24T12:04:24;100146.69;;;4.71;100.00
15272;BME280;7737;51.578;7.268;2023-02-24T12:06:57;100127.44;;;4.69;100.00
15272;BME280;7737;51.578;7.268;2023-02-24T12:09:29;100127.34;;;4.72;100.00
15272;BME280;7737;51.578;7.268;2023-02-24T12:12:02;100121.75;;;4.81;100.00
15272;BME280;7737;51.578;7.268;2023-02-24T12:14:35;100106.19;;;4.75;100.00
15272;BME280;7737;51.578;7.268;2023-02-24T12:17:12;100103.44;;;4.78;100.00
15272;BME280;7737;51.578;7.268;2023-02-24T12:19:51;100108.31;;;4.64;100.00
15272;BME280;7737;51.578;7.268;2023-02-24T12:22:22;100104.69;;;4.68;100.00
15272;BME280;7737;51.578;7.268;2023-02-24T12:24:51;100102.75;;;4.73;100.00
15272;BME280;7737;51.578;7.268;2023-02-24T12:27:30;100104.22;;;4.80;100.00
15272;BME280;7737;51.578;7.268;2023-02-24T12:30:24;100093.91;;;4.74;100.00
15272;BME280;7737;51.578;7.268;2023-02-24T12:33:06;100085.31;;;4.69;100.00
15272;BME280;7737;51.578;7.268;2023-02-24T12:35:41;100076.63;;;4.67;100.00
15272;BME280;7737;51.578;7.268;2023-02-24T12:38:20;100084.50;;;4.68;100.00
15272;BME280;7737;51.578;7.268;2023-02-24T12:40:56;100083.53;;;4.71;100.00
15272;BME280;7737;51.578;7.268;2023-02-24T12:43:33;100077.22;;;4.75;100.00
15272;BME280;7737;51.578;7.268;2023-02-24T12:46:06;100072.47;;;4.84;100.00
15272;BME280;7737;51.578;7.268;2023-02-24T12:48:52;100060.56;;;4.74;100.00
15272;BME280;7737;51.578;7.268;2023-02-24T12:51:27;100061.59;;;4.70;100.00
15272;BME280;7737;51.578;7.268;2023-02-24T12:54:02;100054.59;;;4.69;100.00
15272;BME280;7737;51.578;7.268;2023-02-24T12:56:40;100051.69;;;4.77;100.00
15272;BME280;7737;51.578;7.268;2023-02-24T12:59:12;100047.50;;;4.71;100.00
15272;BME280;7737;51.578;7.268;2023-02-24T13:01:46;100045.13;;;4.65;100.00
15272;BME280;7737;51.578;7.268;2023-02-24T13:04:27;100040.66;;;4.67;100.00
15272;BME280;7737;51.578;7.268;2023-02-24T13:09:49;100028.25;;;4.71;100.00
15272;BME280;7737;51.578;7.268;2023-02-24T13:12:25;100014.91;;;4.75;100.00
15272;BME280;7737;51.578;7.268;2023-02-24T13:14:54;100014.31;;;4.67;100.00
15272;BME280;7737;51.578;7.268;2023-02-24T13:17:23;100016.97;;;4.67;100.00
15272;BME280;7737;51.578;7.268;2023-02-24T13:19:52;100011.63;;;4.69;100.00
15272;BME280;7737;51.578;7.268;2023-02-24T13:22:23;100000.41;;;4.64;100.00
15272;BME280;7737;51.578;7.268;2023-02-24T13:25:11;99998.94;;;4.57;100.00
15272;BME280;7737;51.578;7.268;2023-02-24T13:27:41;100003.16;;;4.61;100.00
15272;BME280;7737;51.578;7.268;2023-02-24T13:30:25;100002.44;;;4.57;100.00
15272;BME280;7737;51.578;7.268;2023-02-24T13:33:01;99990.84;;;4.61;100.00